createdAt,value
2022-11-25T00:00:35.768Z,9.60
2022-11-25T00:03:03.788Z,9.60
2022-11-25T00:05:30.479Z,9.60
2022-11-25T00:07:57.319Z,9.60
2022-11-25T00:10:24.141Z,9.70
2022-11-25T00:12:50.864Z,9.60
2022-11-25T00:15:17.687Z,9.70
2022-11-25T00:17:44.485Z,9.70
2022-11-25T00:20:11.610Z,9.60
2022-11-25T00:22:38.558Z,9.70
2022-11-25T00:25:05.870Z,9.60
2022-11-25T00:27:32.683Z,9.60
2022-11-25T00:29:59.465Z,9.70
2022-11-25T00:32:26.167Z,9.70
2022-11-25T00:34:52.961Z,9.80
2022-11-25T00:37:19.860Z,9.80
2022-11-25T00:39:46.751Z,9.80
2022-11-25T00:42:32.289Z,9.80
2022-11-25T00:44:59.025Z,9.80
2022-11-25T00:47:25.859Z,9.70
2022-11-25T00:49:54.931Z,9.80
2022-11-25T00:52:25.161Z,9.80
2022-11-25T00:54:52.918Z,9.90
2022-11-25T00:57:22.329Z,9.90
2022-11-25T00:59:49.656Z,9.90
2022-11-25T01:02:18.114Z,9.90
2022-11-25T01:04:45.586Z,9.90
2022-11-25T01:07:12.465Z,9.90
2022-11-25T01:09:39.325Z,9.90
2022-11-25T01:12:06.331Z,9.90
2022-11-25T01:14:34.286Z,10.00
2022-11-25T01:17:01.485Z,9.90
2022-11-25T01:19:28.455Z,9.90
2022-11-25T01:21:55.164Z,9.90
2022-11-25T01:24:23.947Z,10.00
2022-11-25T01:26:51.214Z,10.10
2022-11-25T01:29:19.278Z,10.10
2022-11-25T01:31:46.865Z,10.10
2022-11-25T01:34:17.737Z,10.00
2022-11-25T01:36:44.890Z,10.10
2022-11-25T01:39:27.091Z,10.00
2022-11-25T01:41:58.648Z,10.10
2022-11-25T01:44:29.414Z,10.20
2022-11-25T01:46:56.243Z,10.20
2022-11-25T01:49:35.456Z,10.20
2022-11-25T01:52:27.217Z,10.10
2022-11-25T01:54:56.071Z,10.20
2022-11-25T01:57:28.716Z,10.10
2022-11-25T02:00:00.154Z,10.10
2022-11-25T02:02:29.084Z,10.10
2022-11-25T02:04:56.757Z,10.10
2022-11-25T02:07:44.798Z,10.00
2022-11-25T02:10:16.855Z,10.00
2022-11-25T02:12:46.551Z,10.00
2022-11-25T02:15:15.471Z,10.00
2022-11-25T02:17:44.034Z,9.90
2022-11-25T02:20:14.047Z,9.90
2022-11-25T02:22:59.738Z,9.90
2022-11-25T02:25:41.007Z,9.90
2022-11-25T02:28:21.419Z,9.80
2022-11-25T02:30:48.620Z,9.80
2022-11-25T02:33:16.281Z,9.80
2022-11-25T02:35:53.472Z,9.70
2022-11-25T02:38:29.509Z,9.70
2022-11-25T02:41:11.465Z,9.70
2022-11-25T02:43:39.286Z,9.70
2022-11-25T02:46:09.558Z,9.70
2022-11-25T02:49:07.288Z,9.60
2022-11-25T02:51:28.838Z,9.60
2022-11-25T02:53:59.334Z,9.60
2022-11-25T02:56:29.858Z,9.60
2022-11-25T02:58:56.938Z,9.50
2022-11-25T03:01:23.975Z,9.60
2022-11-25T03:03:50.881Z,9.70
2022-11-25T03:06:17.930Z,9.70
2022-11-25T03:08:44.931Z,9.60
2022-11-25T03:11:11.937Z,9.60
2022-11-25T03:13:38.878Z,9.80
2022-11-25T03:16:05.974Z,9.70
2022-11-25T03:18:32.870Z,9.60
2022-11-25T03:20:59.645Z,9.60
2022-11-25T03:23:26.962Z,9.50
2022-11-25T03:25:54.190Z,9.50
2022-11-25T03:28:21.355Z,9.50
2022-11-25T03:30:48.104Z,9.60
2022-11-25T03:33:15.052Z,9.60
2022-11-25T03:35:41.918Z,9.60
2022-11-25T03:38:08.735Z,9.60
2022-11-25T03:40:35.509Z,9.50
2022-11-25T03:43:02.452Z,9.40
2022-11-25T03:45:29.451Z,9.40
2022-11-25T03:47:56.277Z,9.40
2022-11-25T03:50:23.101Z,9.40
2022-11-25T03:52:49.991Z,9.40
2022-11-25T03:55:16.839Z,9.50
2022-11-25T03:57:43.605Z,9.60
2022-11-25T04:00:11.429Z,9.50
2022-11-25T04:02:38.226Z,9.60
2022-11-25T04:05:05.634Z,9.40
2022-11-25T04:07:32.548Z,9.40
2022-11-25T04:09:59.336Z,9.40
2022-11-25T04:12:44.759Z,9.40
2022-11-25T04:15:11.549Z,9.30
2022-11-25T04:17:38.370Z,9.30
2022-11-25T04:20:05.876Z,9.30
2022-11-25T04:22:32.746Z,9.30
2022-11-25T04:24:59.683Z,9.30
2022-11-25T04:27:26.512Z,9.30
2022-11-25T04:29:53.273Z,9.20
2022-11-25T04:32:20.100Z,9.20
2022-11-25T04:34:47.131Z,9.30
2022-11-25T04:37:13.966Z,9.20
2022-11-25T04:39:40.857Z,9.20
2022-11-25T04:42:26.479Z,9.20
2022-11-25T04:45:20.874Z,9.10
2022-11-25T04:47:40.289Z,9.10
2022-11-25T04:50:10.141Z,9.10
2022-11-25T04:52:36.853Z,9.10
2022-11-25T04:55:03.876Z,9.10
2022-11-25T04:57:30.817Z,9.00
2022-11-25T04:59:57.510Z,8.90
2022-11-25T05:02:26.364Z,8.90
2022-11-25T05:04:56.043Z,8.80
2022-11-25T05:07:25.540Z,8.80
2022-11-25T05:09:52.672Z,8.80
2022-11-25T05:12:25.867Z,8.80
2022-11-25T05:14:53.075Z,8.80
2022-11-25T05:17:22.559Z,8.70
2022-11-25T05:19:50.264Z,8.70
2022-11-25T05:22:19.567Z,8.70
2022-11-25T05:24:46.446Z,8.70
2022-11-25T05:27:13.614Z,8.70
2022-11-25T05:29:40.569Z,8.70
2022-11-25T05:32:07.779Z,8.70
2022-11-25T05:34:35.799Z,8.70
2022-11-25T05:37:02.992Z,8.70
2022-11-25T05:39:29.858Z,8.60
2022-11-25T05:41:56.793Z,8.50
2022-11-25T05:44:23.628Z,8.50
2022-11-25T05:46:50.692Z,8.50
2022-11-25T05:49:17.954Z,8.60
2022-11-25T05:51:45.306Z,8.50
2022-11-25T05:54:12.335Z,8.50
2022-11-25T05:56:39.416Z,8.50
2022-11-25T05:59:06.664Z,8.50
2022-11-25T06:01:33.752Z,8.50
2022-11-25T06:04:05.268Z,8.50
2022-11-25T06:06:32.532Z,8.50
2022-11-25T06:08:59.809Z,8.60
2022-11-25T06:11:26.949Z,8.60
2022-11-25T06:13:55.739Z,8.50
2022-11-25T06:16:23.507Z,8.50
2022-11-25T06:18:50.864Z,8.60
2022-11-25T06:21:17.849Z,8.50
2022-11-25T06:23:47.419Z,8.50
2022-11-25T06:26:19.863Z,8.40
2022-11-25T06:28:47.013Z,8.40
2022-11-25T06:31:16.669Z,8.50
2022-11-25T06:33:47.105Z,8.40
2022-11-25T06:36:17.413Z,8.40
2022-11-25T06:38:45.867Z,8.40
2022-11-25T06:41:13.029Z,8.40
2022-11-25T06:43:39.907Z,8.40
2022-11-25T06:46:08.857Z,8.30
2022-11-25T06:48:36.676Z,8.30
2022-11-25T06:51:06.408Z,8.30
2022-11-25T06:53:34.818Z,8.40
2022-11-25T06:56:05.310Z,8.40
2022-11-25T06:58:36.438Z,8.40
2022-11-25T07:01:12.794Z,8.40
2022-11-25T07:03:39.750Z,8.40
2022-11-25T07:06:11.480Z,8.50
2022-11-25T07:08:38.311Z,8.50
2022-11-25T07:11:17.711Z,8.50
2022-11-25T07:13:44.870Z,8.50
2022-11-25T07:16:12.722Z,8.50
2022-11-25T07:18:40.973Z,8.50
2022-11-25T07:21:13.855Z,8.50
2022-11-25T07:23:42.041Z,8.40
2022-11-25T07:26:14.564Z,8.40
2022-11-25T07:28:42.673Z,8.30
2022-11-25T07:34:00.813Z,8.30
2022-11-25T07:36:28.761Z,8.30
2022-11-25T07:38:57.574Z,8.40
2022-11-25T07:41:26.226Z,8.50
2022-11-25T07:43:56.875Z,8.50
2022-11-25T07:46:34.588Z,8.40
2022-11-25T07:49:04.984Z,8.30
2022-11-25T07:51:35.003Z,8.30
2022-11-25T07:54:03.339Z,8.30
2022-11-25T07:56:30.678Z,8.40
2022-11-25T07:58:57.814Z,8.40
2022-11-25T08:01:24.858Z,8.40
2022-11-25T08:03:52.591Z,8.50
2022-11-25T08:06:22.436Z,8.40
2022-11-25T08:08:50.120Z,8.40
2022-11-25T08:11:21.188Z,8.40
2022-11-25T08:13:48.438Z,8.40
2022-11-25T08:16:17.027Z,8.40
2022-11-25T08:18:44.523Z,8.40
2022-11-25T08:21:13.444Z,8.40
2022-11-25T08:23:43.326Z,8.50
2022-11-25T08:26:19.821Z,8.50
2022-11-25T08:28:47.345Z,8.50
2022-11-25T08:31:29.234Z,8.50
2022-11-25T08:33:56.664Z,8.60
2022-11-25T08:36:24.372Z,8.70
2022-11-25T08:38:54.068Z,8.70
2022-11-25T08:41:32.309Z,8.80
2022-11-25T08:44:01.460Z,8.80
2022-11-25T08:46:33.399Z,8.90
2022-11-25T08:49:00.651Z,8.90
2022-11-25T08:51:33.537Z,8.90
2022-11-25T08:54:01.896Z,8.90
2022-11-25T08:56:29.079Z,9.10
2022-11-25T08:58:56.130Z,9.10
2022-11-25T09:01:24.843Z,9.10
2022-11-25T09:03:55.780Z,9.30
2022-11-25T09:06:23.852Z,9.30
2022-11-25T09:08:50.863Z,9.30
2022-11-25T09:11:17.935Z,9.50
2022-11-25T09:13:44.870Z,9.50
2022-11-25T09:16:11.775Z,9.60
2022-11-25T09:18:39.921Z,9.80
2022-11-25T09:21:12.251Z,10.20
2022-11-25T09:23:39.971Z,10.40
2022-11-25T09:26:08.200Z,10.40
2022-11-25T09:28:36.616Z,10.30
2022-11-25T09:31:08.537Z,10.30
2022-11-25T09:33:35.484Z,10.30
2022-11-25T09:36:02.931Z,10.30
2022-11-25T09:38:29.865Z,10.30
2022-11-25T09:41:05.494Z,10.40
2022-11-25T09:44:10.109Z,10.50
2022-11-25T09:46:56.495Z,10.70
2022-11-25T09:50:17.288Z,10.70
2022-11-25T09:53:08.689Z,10.90
2022-11-25T09:55:45.600Z,11.00
2022-11-25T09:58:37.259Z,10.90
2022-11-25T10:01:13.907Z,10.80
2022-11-25T10:03:47.729Z,10.80
2022-11-25T10:06:28.387Z,11.00
2022-11-25T10:09:10.586Z,11.10
2022-11-25T10:11:46.086Z,11.10
2022-11-25T10:14:42.704Z,11.30
2022-11-25T10:17:27.549Z,11.40
2022-11-25T10:20:12.762Z,11.20
2022-11-25T10:22:49.178Z,11.20
2022-11-25T10:25:20.260Z,11.10
2022-11-25T10:28:01.699Z,11.00
2022-11-25T10:30:50.010Z,11.10
2022-11-25T10:33:32.526Z,11.30
2022-11-25T10:36:14.035Z,11.10
2022-11-25T10:39:01.666Z,11.20
2022-11-25T10:42:07.130Z,11.20
2022-11-25T10:44:41.737Z,11.20
2022-11-25T10:47:27.217Z,11.20
2022-11-25T10:49:56.876Z,11.20
2022-11-25T10:52:27.677Z,11.20
2022-11-25T10:55:07.860Z,11.10
2022-11-25T10:57:35.361Z,11.30
2022-11-25T11:00:04.705Z,11.30
2022-11-25T11:02:39.023Z,11.40
2022-11-25T11:05:08.529Z,11.40
2022-11-25T11:07:41.371Z,11.50
2022-11-25T11:10:19.888Z,11.50
2022-11-25T11:12:58.619Z,11.50
2022-11-25T11:15:28.485Z,11.60
2022-11-25T11:17:57.490Z,11.60
2022-11-25T11:20:31.791Z,11.80
2022-11-25T11:23:09.774Z,11.90
2022-11-25T11:25:39.036Z,12.00
2022-11-25T11:28:29.298Z,12.10
2022-11-25T11:31:01.311Z,12.20
2022-11-25T11:33:34.586Z,12.20
2022-11-25T11:36:30.082Z,12.60
2022-11-25T11:39:08.732Z,12.70
2022-11-25T11:41:44.923Z,12.80
2022-11-25T11:45:00.023Z,12.80
2022-11-25T11:47:39.955Z,13.00
2022-11-25T11:50:35.693Z,13.00
2022-11-25T11:53:26.371Z,13.10
2022-11-25T11:56:33.626Z,13.10
2022-11-25T11:59:30.066Z,13.00
2022-11-25T12:02:21.581Z,12.80
2022-11-25T12:05:05.733Z,12.60
2022-11-25T12:07:42.075Z,12.70
2022-11-25T12:10:15.072Z,12.60
2022-11-25T12:13:03.086Z,12.50
2022-11-25T12:16:04.772Z,12.60
2022-11-25T12:18:42.155Z,12.50
2022-11-25T12:21:19.365Z,12.30
2022-11-25T12:24:05.035Z,12.30
2022-11-25T12:26:48.303Z,12.40
2022-11-25T12:29:44.555Z,12.50
2022-11-25T12:32:42.460Z,12.50
2022-11-25T12:35:12.018Z,12.80
2022-11-25T12:38:11.216Z,12.90
2022-11-25T12:40:49.974Z,12.80
2022-11-25T12:43:31.828Z,12.90
2022-11-25T12:46:13.468Z,13.10
2022-11-25T12:48:42.467Z,13.30
2022-11-25T12:51:42.350Z,12.90
2022-11-25T12:54:39.917Z,12.90
2022-11-25T12:57:45.830Z,13.10
2022-11-25T13:00:40.389Z,12.80
2022-11-25T13:03:20.436Z,12.60
2022-11-25T13:05:49.949Z,12.40
2022-11-25T13:08:35.666Z,12.30
2022-11-25T13:11:28.923Z,12.50
2022-11-25T13:13:56.229Z,12.50
2022-11-25T13:16:24.358Z,12.50
2022-11-25T13:18:52.327Z,12.40
2022-11-25T13:21:19.755Z,12.30
2022-11-25T13:23:52.694Z,12.30
2022-11-25T13:26:32.837Z,12.20
2022-11-25T13:29:02.085Z,12.20
2022-11-25T13:31:34.538Z,12.30
2022-11-25T13:34:21.702Z,12.20
2022-11-25T13:36:51.226Z,12.10
2022-11-25T13:39:36.107Z,12.10
2022-11-25T13:42:05.148Z,12.10
2022-11-25T13:44:35.679Z,12.00
2022-11-25T13:47:24.701Z,12.10
2022-11-25T13:49:55.210Z,12.00
2022-11-25T13:52:42.516Z,12.10
2022-11-25T13:55:32.630Z,12.00
2022-11-25T13:58:22.849Z,12.00
2022-11-25T14:01:06.027Z,12.00
2022-11-25T14:03:32.878Z,11.90
2022-11-25T14:06:02.840Z,11.90
2022-11-25T14:08:50.981Z,11.90
2022-11-25T14:11:23.506Z,12.00
2022-11-25T14:13:50.291Z,12.00
2022-11-25T14:17:04.142Z,11.90
2022-11-25T14:19:55.170Z,11.90
2022-11-25T14:22:34.346Z,12.00
2022-11-25T14:25:15.910Z,12.00
2022-11-25T14:27:48.523Z,12.00
2022-11-25T14:30:16.553Z,12.10
2022-11-25T14:32:45.666Z,11.90
2022-11-25T14:35:20.384Z,11.90
2022-11-25T14:38:00.942Z,12.00
2022-11-25T14:40:37.355Z,12.00
2022-11-25T14:43:17.800Z,12.00
2022-11-25T14:45:44.643Z,11.90
2022-11-25T14:48:26.037Z,11.80
2022-11-25T14:51:07.086Z,11.70
2022-11-25T14:53:49.510Z,11.70
2022-11-25T14:56:22.478Z,11.60
2022-11-25T14:58:51.675Z,11.60
2022-11-25T15:01:25.216Z,11.60
2022-11-25T15:04:12.978Z,11.60
2022-11-25T15:06:42.748Z,11.40
2022-11-25T15:09:45.550Z,11.50
2022-11-25T15:12:16.701Z,11.50
2022-11-25T15:14:52.447Z,11.50
2022-11-25T15:17:32.902Z,11.60
2022-11-25T15:20:03.743Z,11.50
2022-11-25T15:22:30.699Z,11.40
2022-11-25T15:25:13.859Z,11.30
2022-11-25T15:27:45.782Z,11.20
2022-11-25T15:30:38.266Z,11.10
2022-11-25T15:33:05.855Z,11.00
2022-11-25T15:35:32.912Z,11.00
2022-11-25T15:37:59.714Z,11.00
2022-11-25T15:40:56.176Z,11.00
2022-11-25T15:43:31.340Z,11.00
2022-11-25T15:46:04.165Z,11.10
2022-11-25T15:48:37.954Z,11.20
2022-11-25T15:51:30.954Z,11.10
2022-11-25T15:54:26.185Z,11.10
2022-11-25T15:57:03.465Z,11.00
2022-11-25T16:00:01.600Z,11.00
2022-11-25T16:02:50.349Z,10.90
2022-11-25T16:05:23.446Z,10.80
2022-11-25T16:07:50.504Z,10.80
2022-11-25T16:10:29.982Z,10.90
2022-11-25T16:13:22.588Z,10.90
2022-11-25T16:15:54.903Z,10.80
2022-11-25T16:18:40.103Z,10.80
2022-11-25T16:21:25.860Z,10.80
2022-11-25T16:24:07.851Z,10.80
2022-11-25T16:27:02.516Z,10.70
2022-11-25T16:29:50.414Z,10.60
2022-11-25T16:32:20.035Z,10.50
2022-11-25T16:34:46.954Z,10.50
2022-11-25T16:37:13.777Z,10.50
2022-11-25T16:39:40.625Z,10.40
2022-11-25T16:42:08.126Z,10.40
2022-11-25T16:44:37.057Z,10.40
2022-11-25T16:47:03.863Z,10.20
2022-11-25T16:49:31.816Z,10.10
2022-11-25T16:51:58.541Z,10.00
2022-11-25T16:54:25.337Z,9.90
2022-11-25T16:56:54.242Z,9.90
2022-11-25T16:59:31.943Z,9.70
2022-11-25T17:02:00.316Z,9.70
2022-11-25T17:04:27.617Z,9.70
2022-11-25T17:07:30.355Z,9.60
2022-11-25T17:09:44.174Z,9.60
2022-11-25T17:12:33.812Z,9.50
2022-11-25T17:15:01.925Z,9.70
2022-11-25T17:17:29.301Z,9.70
2022-11-25T17:19:56.306Z,9.60
2022-11-25T17:22:25.335Z,9.60
2022-11-25T17:24:52.388Z,9.70
2022-11-25T17:27:22.150Z,9.70
2022-11-25T17:29:49.396Z,9.80
2022-11-25T17:32:16.841Z,9.50
2022-11-25T17:34:43.867Z,9.50
2022-11-25T17:37:15.151Z,9.50
2022-11-25T17:39:42.433Z,9.60
2022-11-25T17:42:16.668Z,9.60
2022-11-25T17:44:48.576Z,9.60
2022-11-25T17:47:18.045Z,9.50
2022-11-25T17:49:45.882Z,9.50
2022-11-25T17:52:12.732Z,9.60
2022-11-25T17:54:40.045Z,9.60
2022-11-25T17:57:11.529Z,9.50
2022-11-25T17:59:38.350Z,9.50
2022-11-25T18:02:18.821Z,9.40
2022-11-25T18:04:46.136Z,9.40
2022-11-25T18:07:13.094Z,9.40
2022-11-25T18:09:39.962Z,9.40
2022-11-25T18:12:19.595Z,9.40
2022-11-25T18:14:46.451Z,9.40
2022-11-25T18:17:17.247Z,9.40
2022-11-25T18:19:45.783Z,9.20
2022-11-25T18:22:18.042Z,9.10
2022-11-25T18:24:45.161Z,9.10
2022-11-25T18:27:27.407Z,8.90
2022-11-25T18:29:55.500Z,8.90
2022-11-25T18:32:23.619Z,8.90
2022-11-25T18:34:51.685Z,8.90
2022-11-25T18:37:18.541Z,9.00
2022-11-25T18:39:45.313Z,9.00
2022-11-25T18:42:26.517Z,9.00
2022-11-25T18:44:55.384Z,9.00
2022-11-25T18:47:22.213Z,8.70
2022-11-25T18:49:55.062Z,8.60
2022-11-25T18:52:22.608Z,8.60
2022-11-25T18:54:49.664Z,8.50
2022-11-25T18:57:16.450Z,8.60
2022-11-25T18:59:44.475Z,8.70
2022-11-25T19:02:16.795Z,8.70
2022-11-25T19:04:44.443Z,8.60
2022-11-25T19:07:11.260Z,8.50
2022-11-25T19:09:38.135Z,8.40
2022-11-25T19:12:05.880Z,8.30
2022-11-25T19:14:37.086Z,8.30
2022-11-25T19:17:08.276Z,8.20
2022-11-25T19:19:37.753Z,8.30
2022-11-25T19:22:15.295Z,8.20
2022-11-25T19:24:42.837Z,8.20
2022-11-25T19:27:23.726Z,8.30
2022-11-25T19:29:51.555Z,8.30
2022-11-25T19:32:25.565Z,8.30
2022-11-25T19:35:02.996Z,8.20
2022-11-25T19:37:32.647Z,8.40
2022-11-25T19:39:59.489Z,8.20
2022-11-25T19:42:28.318Z,8.00
2022-11-25T19:44:55.432Z,8.00
2022-11-25T19:47:24.878Z,8.00
2022-11-25T19:49:54.606Z,7.90
2022-11-25T19:52:35.850Z,8.00
2022-11-25T19:55:19.744Z,8.00
2022-11-25T19:57:47.811Z,8.00
2022-11-25T20:00:16.822Z,8.10
2022-11-25T20:02:44.744Z,8.00
2022-11-25T20:05:18.665Z,8.00
2022-11-25T20:07:46.549Z,7.80
2022-11-25T20:10:20.884Z,8.00
2022-11-25T20:12:48.780Z,8.00
2022-11-25T20:15:15.960Z,8.00
2022-11-25T20:17:46.257Z,7.90
2022-11-25T20:20:35.025Z,7.90
2022-11-25T20:23:14.870Z,7.90
2022-11-25T20:25:47.175Z,7.80
2022-11-25T20:28:26.151Z,7.80
2022-11-25T20:30:53.498Z,7.80
2022-11-25T20:33:24.281Z,7.80
2022-11-25T20:35:58.490Z,7.80
2022-11-25T20:38:27.792Z,7.90
2022-11-25T20:40:58.021Z,7.70
2022-11-25T20:43:34.426Z,7.70
2022-11-25T20:46:02.662Z,7.70
2022-11-25T20:48:30.120Z,7.90
2022-11-25T20:51:01.486Z,7.80
2022-11-25T20:53:31.878Z,7.80
2022-11-25T20:55:58.860Z,7.80
2022-11-25T20:58:28.678Z,7.80
2022-11-25T21:00:57.745Z,7.80
2022-11-25T21:03:26.541Z,7.80
2022-11-25T21:05:55.095Z,7.80
2022-11-25T21:08:24.046Z,7.70
2022-11-25T21:10:53.273Z,7.80
2022-11-25T21:13:22.864Z,7.70
2022-11-25T21:15:49.820Z,7.70
2022-11-25T21:18:16.991Z,7.70
2022-11-25T21:20:43.786Z,7.60
2022-11-25T21:23:20.116Z,7.50
2022-11-25T21:25:49.135Z,7.40
2022-11-25T21:28:22.246Z,7.50
2022-11-25T21:30:49.683Z,7.40
2022-11-25T21:33:16.935Z,7.30
2022-11-25T21:35:46.870Z,7.30
2022-11-25T21:38:26.317Z,7.40
2022-11-25T21:40:58.136Z,7.30
2022-11-25T21:43:31.884Z,7.20
2022-11-25T21:46:05.498Z,7.20
2022-11-25T21:48:33.208Z,7.30
2022-11-25T21:51:00.391Z,7.40
2022-11-25T21:53:27.217Z,7.30
2022-11-25T21:55:54.168Z,7.30
2022-11-25T21:58:27.482Z,7.20
2022-11-25T22:00:57.979Z,7.30
2022-11-25T22:03:26.248Z,7.30
2022-11-25T22:05:53.033Z,7.30
2022-11-25T22:08:19.888Z,7.10
2022-11-25T22:10:50.361Z,7.20
2022-11-25T22:13:20.985Z,7.20
2022-11-25T22:15:51.988Z,7.20
2022-11-25T22:18:28.138Z,7.20
2022-11-25T22:20:55.031Z,7.20
2022-11-25T22:23:22.275Z,6.90
2022-11-25T22:25:50.558Z,7.00
2022-11-25T22:28:21.691Z,7.00
2022-11-25T22:30:53.362Z,6.90
2022-11-25T22:33:25.838Z,6.90
2022-11-25T22:35:52.716Z,6.90
2022-11-25T22:38:19.516Z,6.90
2022-11-25T22:40:56.599Z,6.90
2022-11-25T22:43:27.439Z,6.90
2022-11-25T22:45:54.733Z,6.90
2022-11-25T22:48:29.016Z,6.90
2022-11-25T22:50:55.712Z,7.00
2022-11-25T22:53:25.604Z,7.00
2022-11-25T22:55:58.192Z,7.00
2022-11-25T22:58:28.487Z,7.00
2022-11-25T23:00:56.779Z,6.90
2022-11-25T23:03:23.724Z,6.80
2022-11-25T23:05:52.263Z,6.80
2022-11-25T23:08:26.228Z,6.70
2022-11-25T23:10:54.142Z,6.70
2022-11-25T23:13:21.492Z,6.60
2022-11-25T23:16:01.200Z,6.70
2022-11-25T23:18:38.586Z,6.70
2022-11-25T23:21:23.306Z,6.60
2022-11-25T23:23:50.742Z,6.70
2022-11-25T23:26:17.859Z,6.70
2022-11-25T23:28:44.768Z,6.80
2022-11-25T23:31:14.023Z,6.70
2022-11-25T23:33:46.406Z,6.60
2022-11-25T23:36:23.898Z,6.50
2022-11-25T23:38:57.314Z,6.40
2022-11-25T23:41:29.666Z,6.40
2022-11-25T23:43:58.453Z,6.40
2022-11-25T23:46:31.594Z,6.40
2022-11-25T23:49:01.971Z,6.40
2022-11-25T23:51:30.249Z,6.50
2022-11-25T23:53:58.453Z,6.50
2022-11-25T23:56:27.820Z,6.40
2022-11-25T23:58:54.687Z,6.30
